Time;durP1;ratioP1;P1;durP2;ratioP2;P2;SDS_P1;SDS_P2;PMS_P1;PMS_P2;Temp;Humidity;BMP_temperature;BMP_pressure;BME280_temperature;BME280_humidity;BME280_pressure;Samples;Min_cycle;Max_cycle;Signal;HPM_P1;HPM_P2
2024/01/08 00:04:32;;;;;;;7.10;4.60;;;;;;;;;;10331542;28;20585;-68
2024/01/08 00:09:32;;;;;;;7.70;3.83;;;;;;;;;;10331399;28;20209;-70
2024/01/08 00:14:32;;;;;;;5.93;4.07;;;;;;;;;;10330873;28;20833;-70
2024/01/08 00:19:32;;;;;;;4.70;3.30;;;;;;;;;;10329235;28;20233;-69
2024/01/08 00:24:32;;;;;;;3.97;3.20;;;;;;;;;;10330608;28;20222;-68
2024/01/08 00:29:32;;;;;;;6.07;3.47;;;;;;;;;;10330150;28;20213;-69
2024/01/08 00:34:33;;;;;;;6.70;4.30;;;;;;;;;;10330199;28;20193;-69
2024/01/08 00:39:33;;;;;;;6.93;4.10;;;;;;;;;;10328318;28;20711;-70
2024/01/08 00:44:33;;;;;;;5.80;3.77;;;;;;;;;;10329959;28;20206;-69
2024/01/08 00:49:33;;;;;;;6.60;3.80;;;;;;;;;;10329454;28;20209;-69
2024/01/08 00:54:33;;;;;;;8.20;4.07;;;;;;;;;;10329564;28;20602;-68
2024/01/08 00:59:33;;;;;;;8.70;4.13;;;;;;;;;;10327853;28;20217;-68
2024/01/08 01:04:34;;;;;;;5.80;3.63;;;;;;;;;;10329104;28;20217;-69
2024/01/08 01:09:34;;;;;;;8.30;4.33;;;;;;;;;;10329528;28;20205;-68
2024/01/08 01:14:34;;;;;;;7.70;4.07;;;;;;;;;;10328975;28;20244;-70
2024/01/08 01:19:35;;;;;;;12.93;5.00;;;;;;;;;;10327698;28;20237;-68
2024/01/08 01:24:35;;;;;;;6.57;4.03;;;;;;;;;;10328109;28;20248;-68
2024/01/08 01:29:35;;;;;;;8.27;4.77;;;;;;;;;;10328166;28;20312;-70
2024/01/08 01:34:37;;;;;;;8.27;4.67;;;;;;;;;;10327424;28;20205;-69
2024/01/08 01:39:37;;;;;;;7.93;4.90;;;;;;;;;;10327949;28;20210;-69
2024/01/08 01:44:37;;;;;;;7.73;4.80;;;;;;;;;;10328149;28;20225;-68
2024/01/08 01:49:39;;;;;;;7.13;4.67;;;;;;;;;;10327925;28;20299;-68
2024/01/08 01:54:39;;;;;;;8.20;4.70;;;;;;;;;;10326411;28;20558;-69
2024/01/08 01:59:40;;;;;;;6.27;4.53;;;;;;;;;;10327355;28;20210;-69
2024/01/08 02:04:40;;;;;;;6.97;4.33;;;;;;;;;;10327410;28;20214;-69
2024/01/08 02:09:41;;;;;;;8.67;4.97;;;;;;;;;;10327453;28;20285;-69
2024/01/08 02:14:41;;;;;;;11.60;5.00;;;;;;;;;;10326301;28;20204;-69
2024/01/08 02:19:41;;;;;;;8.13;5.10;;;;;;;;;;10327243;28;20477;-69
2024/01/08 02:24:41;;;;;;;8.03;4.73;;;;;;;;;;10327291;28;20543;-68
2024/01/08 02:29:41;;;;;;;10.63;5.37;;;;;;;;;;10327079;28;20704;-68
2024/01/08 02:34:42;;;;;;;7.60;5.03;;;;;;;;;;10328540;28;20981;-70
2024/01/08 02:39:42;;;;;;;8.33;5.10;;;;;;;;;;10334636;28;20212;-70
2024/01/08 02:44:42;;;;;;;11.63;5.77;;;;;;;;;;10334029;28;20480;-70
2024/01/08 02:49:42;;;;;;;11.40;5.93;;;;;;;;;;10333864;28;20257;-67
2024/01/08 02:54:42;;;;;;;10.10;5.67;;;;;;;;;;10332894;28;20201;-69
2024/01/08 02:59:42;;;;;;;12.80;5.57;;;;;;;;;;10333773;28;20188;-67
2024/01/08 03:04:43;;;;;;;9.80;6.37;;;;;;;;;;10333302;28;20688;-69
2024/01/08 03:09:44;;;;;;;10.53;5.83;;;;;;;;;;10332039;28;20185;-68
2024/01/08 03:14:44;;;;;;;10.10;6.07;;;;;;;;;;10333398;28;20542;-70
2024/01/08 03:19:44;;;;;;;11.43;6.20;;;;;;;;;;10332734;28;20220;-68
2024/01/08 03:24:45;;;;;;;13.57;8.27;;;;;;;;;;10333087;28;20491;-67
2024/01/08 03:29:45;;;;;;;17.07;8.00;;;;;;;;;;10331299;28;20199;-69
2024/01/08 03:34:46;;;;;;;15.80;7.57;;;;;;;;;;10332119;28;20441;-69
2024/01/08 03:39:46;;;;;;;14.33;8.10;;;;;;;;;;10332458;28;20661;-69
2024/01/08 03:44:46;;;;;;;16.13;8.63;;;;;;;;;;10331285;28;20213;-69
2024/01/08 03:49:46;;;;;;;16.53;8.43;;;;;;;;;;10330705;28;20188;-69
2024/01/08 03:54:47;;;;;;;13.67;7.87;;;;;;;;;;10331771;28;20237;-69
2024/01/08 03:59:47;;;;;;;11.67;7.93;;;;;;;;;;10331597;28;20203;-69
2024/01/08 04:04:47;;;;;;;12.63;7.40;;;;;;;;;;10331077;28;20813;-69
2024/01/08 04:09:47;;;;;;;18.50;8.87;;;;;;;;;;10330032;28;20269;-69
2024/01/08 04:14:47;;;;;;;16.37;7.77;;;;;;;;;;10331055;28;20198;-69
2024/01/08 04:19:47;;;;;;;15.73;8.10;;;;;;;;;;10330448;28;20237;-67
2024/01/08 04:24:48;;;;;;;14.23;7.67;;;;;;;;;;10329358;28;20228;-69
2024/01/08 04:29:48;;;;;;;16.70;8.17;;;;;;;;;;10329830;28;20696;-69
2024/01/08 04:34:48;;;;;;;14.90;8.57;;;;;;;;;;10329873;28;20247;-69
2024/01/08 04:39:48;;;;;;;17.27;7.97;;;;;;;;;;10329494;28;20202;-67
2024/01/08 04:44:48;;;;;;;18.90;8.60;;;;;;;;;;10328151;28;20284;-67
2024/01/08 04:49:48;;;;;;;20.57;9.10;;;;;;;;;;10329481;28;20178;-67
2024/01/08 04:54:49;;;;;;;18.03;8.27;;;;;;;;;;10330179;28;20819;-68
2024/01/08 04:59:49;;;;;;;21.40;9.00;;;;;;;;;;10329040;28;20675;-67
2024/01/08 05:04:49;;;;;;;16.23;7.97;;;;;;;;;;10328263;28;20691;-69
2024/01/08 05:09:49;;;;;;;16.33;8.37;;;;;;;;;;10329882;28;20190;-67
2024/01/08 05:14:50;;;;;;;17.77;9.20;;;;;;;;;;10328895;28;20189;-67
2024/01/08 05:19:52;;;;;;;14.63;7.97;;;;;;;;;;10413553;23;20243;-66
2024/01/08 05:24:53;;;;;;;15.80;7.70;;;;;;;;;;10409056;28;20214;-68
2024/01/08 05:29:53;;;;;;;20.27;9.13;;;;;;;;;;10386303;28;20291;-68
2024/01/08 05:34:54;;;;;;;16.03;8.13;;;;;;;;;;10379183;28;20197;-67
2024/01/08 05:39:54;;;;;;;14.43;8.20;;;;;;;;;;10379696;28;20210;-67
2024/01/08 05:44:55;;;;;;;15.07;8.00;;;;;;;;;;10380000;28;20219;-67
2024/01/08 05:49:56;;;;;;;14.90;8.50;;;;;;;;;;10380520;28;20211;-68
2024/01/08 05:54:56;;;;;;;16.23;8.40;;;;;;;;;;10382268;28;20283;-67
2024/01/08 05:59:56;;;;;;;21.03;8.67;;;;;;;;;;10380330;28;20213;-67
2024/01/08 06:04:56;;;;;;;17.47;7.97;;;;;;;;;;10380797;28;20217;-67
2024/01/08 06:09:57;;;;;;;17.42;9.35;;;;;;;;;;10385200;28;20553;-68
2024/01/08 06:14:57;;;;;;;14.23;7.43;;;;;;;;;;10385706;28;20194;-67
2024/01/08 06:19:57;;;;;;;15.27;7.37;;;;;;;;;;10387464;28;20475;-68
2024/01/08 06:24:57;;;;;;;15.53;8.47;;;;;;;;;;10388063;28;20471;-67
2024/01/08 06:29:58;;;;;;;17.57;7.93;;;;;;;;;;10388230;28;20592;-67
2024/01/08 06:34:58;;;;;;;17.27;8.65;;;;;;;;;;10384888;28;20193;-65
2024/01/08 06:39:58;;;;;;;16.70;8.43;;;;;;;;;;10386925;28;20209;-67
2024/01/08 06:44:58;;;;;;;18.70;8.60;;;;;;;;;;10388199;28;20687;-67
2024/01/08 06:49:58;;;;;;;16.43;7.93;;;;;;;;;;10383875;28;20223;-68
2024/01/08 06:54:59;;;;;;;20.77;9.10;;;;;;;;;;10385682;28;20196;-68
2024/01/08 06:59:59;;;;;;;16.80;8.10;;;;;;;;;;10384787;28;20581;-67
2024/01/08 07:04:59;;;;;;;17.10;8.53;;;;;;;;;;10385598;28;20220;-67
2024/01/08 07:09:59;;;;;;;16.53;8.13;;;;;;;;;;10383235;28;20206;-67
2024/01/08 07:14:59;;;;;;;12.67;7.33;;;;;;;;;;10385394;28;20659;-68
2024/01/08 07:20:00;;;;;;;19.37;9.00;;;;;;;;;;10384133;28;20601;-67
2024/01/08 07:25:00;;;;;;;19.30;8.33;;;;;;;;;;10384934;28;20295;-67
2024/01/08 07:30:00;;;;;;;16.30;7.83;;;;;;;;;;10387030;28;20682;-68
2024/01/08 07:35:02;;;;;;;21.50;8.43;;;;;;;;;;10385732;28;20196;-67
2024/01/08 07:40:02;;;;;;;17.57;9.40;;;;;;;;;;10385412;28;20661;-67
2024/01/08 07:45:03;;;;;;;16.13;8.03;;;;;;;;;;10385332;28;20300;-67
2024/01/08 07:50:03;;;;;;;16.57;8.40;;;;;;;;;;10382437;28;20283;-68
2024/01/08 07:55:04;;;;;;;18.90;8.37;;;;;;;;;;10383582;28;20239;-67
2024/01/08 08:00:06;;;;;;;18.13;9.10;;;;;;;;;;10383940;28;20275;-68
2024/01/08 08:05:06;;;;;;;13.73;7.80;;;;;;;;;;10384460;28;20225;-67
2024/01/08 08:10:07;;;;;;;16.70;8.63;;;;;;;;;;10381345;28;20276;-67
2024/01/08 08:15:08;;;;;;;19.33;9.10;;;;;;;;;;10382914;28;20197;-67
2024/01/08 08:20:10;;;;;;;18.70;8.43;;;;;;;;;;10378760;28;20260;-66
2024/01/08 08:25:10;;;;;;;16.63;8.90;;;;;;;;;;10378908;28;20232;-67
2024/01/08 08:30:12;;;;;;;17.03;9.13;;;;;;;;;;10380947;28;20213;-67
2024/01/08 08:35:12;;;;;;;17.57;8.67;;;;;;;;;;10379428;28;20193;-66
2024/01/08 08:40:12;;;;;;;22.17;9.07;;;;;;;;;;10378499;28;20251;-67
2024/01/08 08:45:12;;;;;;;18.87;9.43;;;;;;;;;;10378228;28;20213;-66
2024/01/08 08:50:13;;;;;;;14.83;8.47;;;;;;;;;;10378461;28;21053;-67
2024/01/08 08:55:13;;;;;;;16.08;7.10;;;;;;;;;;10378224;28;20958;-67
2024/01/08 09:00:13;;;;;;;19.77;8.47;;;;;;;;;;10378064;28;20225;-67
2024/01/08 09:05:14;;;;;;;19.40;9.07;;;;;;;;;;10378830;28;20232;-65
2024/01/08 09:10:15;;;;;;;21.67;9.93;;;;;;;;;;10377954;28;20274;-66
2024/01/08 09:15:15;;;;;;;24.43;9.83;;;;;;;;;;10378470;28;20255;-67
2024/01/08 09:20:16;;;;;;;20.17;9.73;;;;;;;;;;10377953;28;20601;-65
2024/01/08 09:25:16;;;;;;;22.15;10.40;;;;;;;;;;10376561;28;20225;-66
2024/01/08 09:30:16;;;;;;;20.67;11.27;;;;;;;;;;10376458;28;20213;-68
2024/01/08 09:35:16;;;;;;;26.05;11.52;;;;;;;;;;10376848;28;20196;-66
2024/01/08 09:40:17;;;;;;;23.53;10.83;;;;;;;;;;10375875;28;20300;-66
2024/01/08 09:45:21;;;;;;;19.47;11.23;;;;;;;;;;10370178;28;20229;-67
2024/01/08 09:50:22;;;;;;;29.30;13.90;;;;;;;;;;10365097;28;20224;-67
2024/01/08 09:55:22;;;;;;;25.50;12.53;;;;;;;;;;10365018;28;20228;-67
2024/01/08 10:00:22;;;;;;;22.10;12.20;;;;;;;;;;10365723;28;20232;-67
2024/01/08 10:05:26;;;;;;;50.83;18.10;;;;;;;;;;10369458;28;20575;-68
2024/01/08 10:10:28;;;;;;;69.23;23.27;;;;;;;;;;10371400;28;20188;-67
2024/01/08 10:15:29;;;;;;;71.63;24.03;;;;;;;;;;10372789;28;20608;-67
2024/01/08 10:20:29;;;;;;;24.63;12.17;;;;;;;;;;10370843;28;20216;-66
2024/01/08 10:25:29;;;;;;;32.73;14.73;;;;;;;;;;10372216;28;20223;-67
2024/01/08 10:30:30;;;;;;;39.20;17.40;;;;;;;;;;10374492;28;20231;-68
2024/01/08 10:35:30;;;;;;;27.33;13.07;;;;;;;;;;10376972;28;20201;-67
2024/01/08 10:40:30;;;;;;;29.20;13.67;;;;;;;;;;10378146;28;20459;-68
2024/01/08 10:45:30;;;;;;;24.77;13.00;;;;;;;;;;10377730;28;20567;-67
2024/01/08 10:50:32;;;;;;;24.13;11.70;;;;;;;;;;10377562;28;20284;-68
2024/01/08 10:55:32;;;;;;;27.03;12.20;;;;;;;;;;10380681;28;20193;-66
2024/01/08 11:00:33;;;;;;;21.00;10.87;;;;;;;;;;10379384;28;20202;-68
2024/01/08 11:05:34;;;;;;;24.10;11.10;;;;;;;;;;10377030;28;20572;-67
2024/01/08 11:10:34;;;;;;;27.77;12.17;;;;;;;;;;10383493;28;20635;-67
2024/01/08 11:15:34;;;;;;;22.23;11.37;;;;;;;;;;10384630;28;20346;-67
2024/01/08 11:20:45;;;;;;;20.63;11.17;;;;;;;;;;10382586;28;20201;-66
2024/01/08 11:25:49;;;;;;;21.33;10.53;;;;;;;;;;10379164;28;20220;-67
2024/01/08 11:30:57;;;;;;;24.17;12.60;;;;;;;;;;10378081;28;20219;-67
2024/01/08 11:35:59;;;;;;;24.63;11.27;;;;;;;;;;10381186;28;20201;-67
2024/01/08 11:40:59;;;;;;;22.13;10.30;;;;;;;;;;10382454;28;20240;-68
2024/01/08 11:46:00;;;;;;;20.43;10.13;;;;;;;;;;10401118;23;20318;-64
2024/01/08 11:51:00;;;;;;;20.92;10.73;;;;;;;;;;10403044;28;20921;-68
2024/01/08 11:56:01;;;;;;;20.73;10.17;;;;;;;;;;10408203;28;20219;-69
2024/01/08 12:01:14;;;;;;;17.87;10.13;;;;;;;;;;10370496;28;20247;-66
2024/01/08 12:06:14;;;;;;;17.57;10.20;;;;;;;;;;10366982;28;20212;-66
2024/01/08 12:11:15;;;;;;;20.83;11.20;;;;;;;;;;10367296;28;20623;-67
2024/01/08 12:16:15;;;;;;;17.77;10.07;;;;;;;;;;10359796;28;20292;-67
2024/01/08 12:21:16;;;;;;;17.83;9.90;;;;;;;;;;10350406;28;20194;-66
2024/01/08 12:26:18;;;;;;;24.07;12.00;;;;;;;;;;10350741;28;20307;-68
2024/01/08 12:31:20;;;;;;;29.37;12.27;;;;;;;;;;10355598;28;20185;-66
2024/01/08 12:36:20;;;;;;;27.93;13.40;;;;;;;;;;10367606;28;20275;-67
2024/01/08 12:41:20;;;;;;;26.00;11.97;;;;;;;;;;10368808;28;20619;-66
2024/01/08 12:46:21;;;;;;;18.53;9.90;;;;;;;;;;10366173;28;20291;-66
2024/01/08 12:51:21;;;;;;;15.23;8.63;;;;;;;;;;10368374;28;20688;-67
2024/01/08 12:56:21;;;;;;;17.03;9.27;;;;;;;;;;10361885;28;20221;-69
2024/01/08 13:01:21;;;;;;;35.70;14.67;;;;;;;;;;10358539;28;20189;-69
2024/01/08 13:06:22;;;;;;;19.17;10.40;;;;;;;;;;10352962;28;20661;-68
2024/01/08 13:11:22;;;;;;;19.57;10.73;;;;;;;;;;10356873;28;20276;-68
2024/01/08 13:16:23;;;;;;;20.87;11.90;;;;;;;;;;10363541;28;20290;-67
2024/01/08 13:21:24;;;;;;;20.57;10.97;;;;;;;;;;10363237;28;21001;-67
2024/01/08 13:26:25;;;;;;;22.40;11.30;;;;;;;;;;10361918;28;20220;-67
2024/01/08 13:31:26;;;;;;;25.63;15.10;;;;;;;;;;10359647;28;20201;-67
2024/01/08 13:36:26;;;;;;;17.80;10.83;;;;;;;;;;10356336;28;20212;-66
2024/01/08 13:41:27;;;;;;;20.03;9.73;;;;;;;;;;10358528;28;20696;-65
2024/01/08 13:46:27;;;;;;;19.60;9.80;;;;;;;;;;10360502;28;20369;-67
2024/01/08 13:51:28;;;;;;;21.43;10.47;;;;;;;;;;10362636;28;20678;-68
2024/01/08 13:56:28;;;;;;;21.80;11.10;;;;;;;;;;10366077;28;20255;-69
2024/01/08 14:01:28;;;;;;;20.30;10.50;;;;;;;;;;10364441;28;20227;-69
2024/01/08 14:06:28;;;;;;;23.70;12.23;;;;;;;;;;10366290;28;20251;-68
2024/01/08 14:11:29;;;;;;;20.60;10.77;;;;;;;;;;10366416;28;20243;-69
2024/01/08 14:16:29;;;;;;;22.80;11.17;;;;;;;;;;10366343;28;20226;-68
2024/01/08 14:21:29;;;;;;;21.33;11.07;;;;;;;;;;10365885;28;20224;-68
2024/01/08 14:26:29;;;;;;;22.77;11.50;;;;;;;;;;10366723;28;20231;-69
2024/01/08 14:31:29;;;;;;;21.97;11.43;;;;;;;;;;10365719;28;20243;-67
2024/01/08 14:36:29;;;;;;;21.90;11.67;;;;;;;;;;10373682;28;20209;-67
2024/01/08 14:41:30;;;;;;;28.93;12.57;;;;;;;;;;10373516;28;20201;-67
2024/01/08 14:46:31;;;;;;;28.93;11.83;;;;;;;;;;10373974;28;20241;-67
2024/01/08 14:51:32;;;;;;;29.83;13.10;;;;;;;;;;10368865;28;20667;-67
2024/01/08 14:56:32;;;;;;;26.87;11.83;;;;;;;;;;10370053;28;20210;-67
2024/01/08 15:01:33;;;;;;;21.03;11.77;;;;;;;;;;10374206;28;20193;-69
2024/01/08 15:06:34;;;;;;;26.97;12.70;;;;;;;;;;10370069;28;20224;-67
2024/01/08 15:11:34;;;;;;;27.30;12.13;;;;;;;;;;10369889;28;20208;-67
2024/01/08 15:16:34;;;;;;;27.83;11.73;;;;;;;;;;10371503;28;20225;-67
2024/01/08 15:21:35;;;;;;;26.23;13.07;;;;;;;;;;10371197;28;20197;-67
2024/01/08 15:26:35;;;;;;;29.80;12.83;;;;;;;;;;10368519;28;21013;-67
2024/01/08 15:31:35;;;;;;;29.53;13.80;;;;;;;;;;10360837;28;20448;-66
2024/01/08 15:36:35;;;;;;;35.60;15.43;;;;;;;;;;10360085;28;20261;-68
2024/01/08 15:41:35;;;;;;;38.83;16.60;;;;;;;;;;10359282;28;20679;-66
2024/01/08 15:46:40;;;;;;;30.23;13.43;;;;;;;;;;10360542;28;20496;-66
2024/01/08 15:51:40;;;;;;;28.57;13.53;;;;;;;;;;10358189;28;20205;-67
2024/01/08 15:56:43;;;;;;;33.80;14.20;;;;;;;;;;10360732;28;20232;-67
2024/01/08 16:01:43;;;;;;;46.10;18.07;;;;;;;;;;10361263;28;20660;-67
2024/01/08 16:06:43;;;;;;;34.47;13.63;;;;;;;;;;10357082;28;20221;-67
2024/01/08 16:11:44;;;;;;;45.20;18.17;;;;;;;;;;10357649;28;20514;-67
2024/01/08 16:16:44;;;;;;;26.30;13.83;;;;;;;;;;10360103;28;20217;-67
2024/01/08 16:21:44;;;;;;;30.23;12.70;;;;;;;;;;10368711;28;20198;-67
2024/01/08 16:26:45;;;;;;;33.67;14.37;;;;;;;;;;10367968;28;20652;-67
2024/01/08 16:31:46;;;;;;;32.00;13.23;;;;;;;;;;10370475;28;20436;-68
2024/01/08 16:36:46;;;;;;;31.03;12.93;;;;;;;;;;10370329;28;20217;-68
2024/01/08 16:41:46;;;;;;;24.00;11.63;;;;;;;;;;10368069;28;20444;-67
2024/01/08 16:46:46;;;;;;;27.67;12.87;;;;;;;;;;10368796;28;20239;-68
2024/01/08 16:51:46;;;;;;;25.43;11.80;;;;;;;;;;10369125;28;20679;-67
2024/01/08 16:56:46;;;;;;;25.37;12.67;;;;;;;;;;10369116;28;20359;-68
2024/01/08 17:01:47;;;;;;;29.07;12.83;;;;;;;;;;10363260;28;20216;-67
2024/01/08 17:06:47;;;;;;;64.00;23.53;;;;;;;;;;10364489;28;20233;-66
2024/01/08 17:11:47;;;;;;;52.83;24.37;;;;;;;;;;10363830;28;20215;-67
2024/01/08 17:16:47;;;;;;;31.73;15.43;;;;;;;;;;10360730;28;20608;-67
2024/01/08 17:21:47;;;;;;;57.57;20.67;;;;;;;;;;10360009;28;20859;-66
2024/01/08 17:26:47;;;;;;;42.30;19.70;;;;;;;;;;10366369;28;20231;-69
2024/01/08 17:31:48;;;;;;;31.33;13.53;;;;;;;;;;10365502;28;20279;-66
2024/01/08 17:36:48;;;;;;;49.03;20.20;;;;;;;;;;10363141;28;20219;-68
2024/01/08 17:41:48;;;;;;;47.60;18.83;;;;;;;;;;10361309;28;20459;-67
2024/01/08 17:46:52;;;;;;;35.80;17.10;;;;;;;;;;10363533;28;20245;-68
2024/01/08 17:51:52;;;;;;;39.73;16.30;;;;;;;;;;10361052;28;20830;-68
2024/01/08 17:56:55;;;;;;;37.93;14.20;;;;;;;;;;10361550;28;20209;-68
2024/01/08 18:01:55;;;;;;;37.67;15.57;;;;;;;;;;10361069;28;20217;-68
2024/01/08 18:06:56;;;;;;;29.43;12.93;;;;;;;;;;10369725;28;20299;-67
2024/01/08 18:11:56;;;;;;;32.67;13.10;;;;;;;;;;10372038;28;20224;-67
2024/01/08 18:16:57;;;;;;;33.57;14.87;;;;;;;;;;10366765;28;20300;-67
2024/01/08 18:21:57;;;;;;;45.43;17.97;;;;;;;;;;10371669;28;20208;-67
2024/01/08 18:26:59;;;;;;;38.93;17.87;;;;;;;;;;10371074;28;20223;-67
2024/01/08 18:31:59;;;;;;;38.80;16.47;;;;;;;;;;10371915;28;20184;-67
2024/01/08 18:36:59;;;;;;;41.20;16.90;;;;;;;;;;10371609;28;20555;-67
2024/01/08 18:41:59;;;;;;;64.17;24.53;;;;;;;;;;10370599;28;20238;-66
2024/01/08 18:47:00;;;;;;;35.83;14.40;;;;;;;;;;10368612;28;20237;-67
2024/01/08 18:52:00;;;;;;;34.20;15.07;;;;;;;;;;10373462;28;20196;-67
2024/01/08 18:57:00;;;;;;;36.47;15.53;;;;;;;;;;10369538;28;20463;-67
2024/01/08 19:02:00;;;;;;;36.47;14.70;;;;;;;;;;10373545;28;20259;-67
2024/01/08 19:07:00;;;;;;;49.47;19.60;;;;;;;;;;10371230;28;20486;-67
2024/01/08 19:12:02;;;;;;;59.87;21.27;;;;;;;;;;10363885;28;20197;-67
2024/01/08 19:17:02;;;;;;;34.53;14.80;;;;;;;;;;10367032;28;20504;-66
2024/01/08 19:22:03;;;;;;;36.47;13.93;;;;;;;;;;10372706;28;20244;-66
2024/01/08 19:27:03;;;;;;;34.63;15.43;;;;;;;;;;10372778;28;20499;-65
2024/01/08 19:32:04;;;;;;;39.43;15.00;;;;;;;;;;10373278;28;20727;-66
2024/01/08 19:37:05;;;;;;;32.63;14.10;;;;;;;;;;10370290;28;20798;-66
2024/01/08 19:42:06;;;;;;;35.70;16.27;;;;;;;;;;10372316;28;20254;-66
2024/01/08 19:47:06;;;;;;;32.10;14.47;;;;;;;;;;10371415;28;20578;-65
2024/01/08 19:52:07;;;;;;;33.23;13.23;;;;;;;;;;10369190;28;20196;-65
2024/01/08 19:57:08;;;;;;;33.43;13.93;;;;;;;;;;10371442;28;20212;-66
2024/01/08 20:02:08;;;;;;;39.33;17.00;;;;;;;;;;10371317;28;20282;-67
2024/01/08 20:07:08;;;;;;;44.23;15.97;;;;;;;;;;10371073;28;20698;-66
2024/01/08 20:12:09;;;;;;;37.47;16.30;;;;;;;;;;10368230;28;20206;-66
2024/01/08 20:17:10;;;;;;;37.53;14.50;;;;;;;;;;10370665;28;20298;-67
2024/01/08 20:22:12;;;;;;;35.70;14.73;;;;;;;;;;10370633;28;20243;-66
2024/01/08 20:27:12;;;;;;;47.57;17.20;;;;;;;;;;10370083;28;20239;-66
2024/01/08 20:32:12;;;;;;;35.23;15.43;;;;;;;;;;10367463;28;20206;-67
2024/01/08 20:37:12;;;;;;;33.67;14.37;;;;;;;;;;10369908;28;20263;-66
2024/01/08 20:42:12;;;;;;;34.67;15.57;;;;;;;;;;10367943;28;20451;-66
2024/01/08 20:47:13;;;;;;;37.77;16.00;;;;;;;;;;10358250;28;20237;-66
2024/01/08 20:52:13;;;;;;;38.17;15.73;;;;;;;;;;10366893;28;20447;-65
2024/01/08 20:57:13;;;;;;;37.40;15.77;;;;;;;;;;10369138;28;20227;-66
2024/01/08 21:02:13;;;;;;;34.92;15.18;;;;;;;;;;10369153;28;20204;-66
2024/01/08 21:07:13;;;;;;;36.77;16.83;;;;;;;;;;10368489;28;20223;-66
2024/01/08 21:12:14;;;;;;;35.53;15.87;;;;;;;;;;10348700;28;20276;-69
2024/01/08 21:17:14;;;;;;;39.47;16.87;;;;;;;;;;10349191;28;20528;-66
2024/01/08 21:22:15;;;;;;;40.70;15.43;;;;;;;;;;10360128;28;20200;-66
2024/01/08 21:27:15;;;;;;;48.57;19.57;;;;;;;;;;10359822;28;20236;-66
2024/01/08 21:32:16;;;;;;;26.80;13.97;;;;;;;;;;10360736;28;20198;-66
2024/01/08 21:37:17;;;;;;;41.17;15.30;;;;;;;;;;10368155;28;20710;-66
2024/01/08 21:42:17;;;;;;;38.77;16.10;;;;;;;;;;10367243;28;20270;-65
2024/01/08 21:47:22;;;;;;;46.65;17.92;;;;;;;;;;10365148;28;20239;-66
2024/01/08 21:52:23;;;;;;;45.80;17.53;;;;;;;;;;10366522;28;20220;-66
2024/01/08 21:57:23;;;;;;;52.47;21.60;;;;;;;;;;10367398;28;20213;-66
2024/01/08 22:02:23;;;;;;;49.40;18.77;;;;;;;;;;10367761;28;20194;-66
2024/01/08 22:07:23;;;;;;;49.40;18.73;;;;;;;;;;10364079;28;20224;-66
2024/01/08 22:12:24;;;;;;;31.90;15.83;;;;;;;;;;10367696;28;20196;-65
2024/01/08 22:17:24;;;;;;;45.73;19.27;;;;;;;;;;10367456;28;20212;-66
2024/01/08 22:22:24;;;;;;;35.87;14.70;;;;;;;;;;10367335;28;20191;-67
2024/01/08 22:27:24;;;;;;;37.17;15.10;;;;;;;;;;10364280;28;20245;-66
2024/01/08 22:32:24;;;;;;;37.53;14.80;;;;;;;;;;10366793;28;20188;-67
2024/01/08 22:37:25;;;;;;;40.40;16.97;;;;;;;;;;10367170;28;20217;-67
2024/01/08 22:42:25;;;;;;;38.00;17.37;;;;;;;;;;10366757;28;20231;-66
2024/01/08 22:47:25;;;;;;;34.37;14.73;;;;;;;;;;10363814;28;20489;-67
2024/01/08 22:52:26;;;;;;;31.63;14.37;;;;;;;;;;10370053;28;20561;-65
2024/01/08 22:57:26;;;;;;;35.30;14.37;;;;;;;;;;10373733;28;20276;-66
2024/01/08 23:02:26;;;;;;;34.30;13.67;;;;;;;;;;10371335;28;20198;-67
2024/01/08 23:07:26;;;;;;;32.70;13.20;;;;;;;;;;10373598;28;20863;-66
2024/01/08 23:12:26;;;;;;;35.37;12.97;;;;;;;;;;10373781;28;20203;-67
2024/01/08 23:17:26;;;;;;;29.17;14.40;;;;;;;;;;10373402;28;20207;-66
2024/01/08 23:22:27;;;;;;;32.63;13.67;;;;;;;;;;10371083;28;21093;-64
2024/01/08 23:27:27;;;;;;;37.40;13.43;;;;;;;;;;10373282;28;20220;-65
2024/01/08 23:32:27;;;;;;;30.47;12.23;;;;;;;;;;10373234;28;20200;-66
2024/01/08 23:37:27;;;;;;;28.03;10.83;;;;;;;;;;10372668;28;20248;-65
2024/01/08 23:42:29;;;;;;;27.87;12.70;;;;;;;;;;10370061;28;20199;-64
2024/01/08 23:47:29;;;;;;;27.47;12.60;;;;;;;;;;10372003;28;20228;-66
2024/01/08 23:52:31;;;;;;;48.57;13.40;;;;;;;;;;10372141;28;20670;-66
2024/01/08 23:57:31;;;;;;;28.80;11.87;;;;;;;;;;10371541;28;20215;-65
